Baldwin Harbor, New York
Current Conditions -  °F | °C
As of 2:51 AM on Tuesday 27 Jan 2015 (Local Time) from KJFK Reporting Station
Light Snow Light Snow  
Wind Chill: 10°   Ceiling: 1200
Heat Index: 25°   Visibility: 1.5mi
Dew Point: 20°   Wind: 22mph
Humidity: 81%   Direction: 10°N
Pressure: 29.65"   Gusts: 32mph
Location:  40.6539°N, 73.609°W
Report Text: KJFK 270751Z 01019G28KT 1 1/2SM R04R/6000VP6000FT -SN BLSN BKN012 OVC017 M04/M07 A2965 RMK AO2 PK WND 01031/0728 TWR VIS 2 SLP040 P0001 T10391067 $
Loading
Personal Weather Stations






























Interactive Weather Map New forecast layout! Learn more

10-Day Weather Forecast

Advertisements
Track Severe Weather on mobile